sensor_id;sensor_type;location;lat;lon;timestamp;temperature;humidity
52495;DHT22;38405;53.212;5.660;2023-07-16T00:00:48;16.60;99.90
52495;DHT22;38405;53.212;5.660;2023-07-16T00:03:15;16.60;99.90
52495;DHT22;38405;53.212;5.660;2023-07-16T00:05:40;16.60;99.90
52495;DHT22;38405;53.212;5.660;2023-07-16T00:08:06;16.60;99.90
52495;DHT22;38405;53.212;5.660;2023-07-16T00:10:36;16.60;99.90
52495;DHT22;38405;53.212;5.660;2023-07-16T00:13:02;16.70;99.90
52495;DHT22;38405;53.212;5.660;2023-07-16T00:15:29;16.60;99.90
52495;DHT22;38405;53.212;5.660;2023-07-16T00:17:54;16.60;99.90
52495;DHT22;38405;53.212;5.660;2023-07-16T00:20:20;16.50;99.90
52495;DHT22;38405;53.212;5.660;2023-07-16T00:22:46;16.50;99.90
52495;DHT22;38405;53.212;5.660;2023-07-16T00:25:12;16.60;99.90
52495;DHT22;38405;53.212;5.660;2023-07-16T00:27:37;16.50;99.90
52495;DHT22;38405;53.212;5.660;2023-07-16T00:30:04;16.50;99.90
52495;DHT22;38405;53.212;5.660;2023-07-16T00:32:29;16.60;99.90
52495;DHT22;38405;53.212;5.660;2023-07-16T00:34:55;16.60;99.90
52495;DHT22;38405;53.212;5.660;2023-07-16T00:37:21;16.70;99.90
52495;DHT22;38405;53.212;5.660;2023-07-16T00:39:46;16.70;99.90
52495;DHT22;38405;53.212;5.660;2023-07-16T00:42:12;16.70;99.90
52495;DHT22;38405;53.212;5.660;2023-07-16T00:44:38;16.70;99.90
52495;DHT22;38405;53.212;5.660;2023-07-16T00:47:03;16.70;99.90
52495;DHT22;38405;53.212;5.660;2023-07-16T00:49:29;16.70;99.90
52495;DHT22;38405;53.212;5.660;2023-07-16T00:51:55;16.80;99.90
52495;DHT22;38405;53.212;5.660;2023-07-16T00:54:21;16.70;99.90
52495;DHT22;38405;53.212;5.660;2023-07-16T00:56:48;16.70;99.90
52495;DHT22;38405;53.212;5.660;2023-07-16T00:59:13;16.70;99.90
52495;DHT22;38405;53.212;5.660;2023-07-16T01:01:39;16.60;99.90
52495;DHT22;38405;53.212;5.660;2023-07-16T01:04:05;16.60;99.90
52495;DHT22;38405;53.212;5.660;2023-07-16T01:06:41;16.60;99.90
52495;DHT22;38405;53.212;5.660;2023-07-16T01:09:18;16.60;99.90
52495;DHT22;38405;53.212;5.660;2023-07-16T01:11:45;16.60;99.90
52495;DHT22;38405;53.212;5.660;2023-07-16T01:14:12;16.60;99.90
52495;DHT22;38405;53.212;5.660;2023-07-16T01:16:40;16.60;99.90
52495;DHT22;38405;53.212;5.660;2023-07-16T01:19:06;16.60;99.90
52495;DHT22;38405;53.212;5.660;2023-07-16T01:30:04;16.90;99.90
52495;DHT22;38405;53.212;5.660;2023-07-16T01:32:33;16.90;99.90
52495;DHT22;38405;53.212;5.660;2023-07-16T01:35:00;16.90;99.90
52495;DHT22;38405;53.212;5.660;2023-07-16T01:37:26;17.10;99.90
52495;DHT22;38405;53.212;5.660;2023-07-16T01:39:52;17.00;99.90
52495;DHT22;38405;53.212;5.660;2023-07-16T01:42:18;17.10;99.90
52495;DHT22;38405;53.212;5.660;2023-07-16T01:44:43;17.10;99.90
52495;DHT22;38405;53.212;5.660;2023-07-16T01:49:38;17.20;99.90
52495;DHT22;38405;53.212;5.660;2023-07-16T01:52:06;17.30;99.90
52495;DHT22;38405;53.212;5.660;2023-07-16T01:54:31;17.30;99.90
52495;DHT22;38405;53.212;5.660;2023-07-16T01:56:57;17.30;99.90
52495;DHT22;38405;53.212;5.660;2023-07-16T01:59:23;17.30;99.90
52495;DHT22;38405;53.212;5.660;2023-07-16T02:01:49;17.30;99.90
52495;DHT22;38405;53.212;5.660;2023-07-16T02:04:14;17.30;99.90
52495;DHT22;38405;53.212;5.660;2023-07-16T02:06:40;17.20;99.90
52495;DHT22;38405;53.212;5.660;2023-07-16T02:09:06;17.20;99.90
52495;DHT22;38405;53.212;5.660;2023-07-16T02:11:31;17.20;99.90
52495;DHT22;38405;53.212;5.660;2023-07-16T02:13:57;17.10;99.90
52495;DHT22;38405;53.212;5.660;2023-07-16T02:16:23;17.10;99.90
52495;DHT22;38405;53.212;5.660;2023-07-16T02:18:48;17.10;99.90
52495;DHT22;38405;53.212;5.660;2023-07-16T02:21:14;17.10;99.90
52495;DHT22;38405;53.212;5.660;2023-07-16T02:23:39;17.10;99.90
52495;DHT22;38405;53.212;5.660;2023-07-16T02:26:05;17.10;99.90
52495;DHT22;38405;53.212;5.660;2023-07-16T02:28:31;17.10;99.90
52495;DHT22;38405;53.212;5.660;2023-07-16T02:30:57;17.10;99.90
52495;DHT22;38405;53.212;5.660;2023-07-16T02:33:23;17.10;99.90
52495;DHT22;38405;53.212;5.660;2023-07-16T02:35:49;17.20;99.90
52495;DHT22;38405;53.212;5.660;2023-07-16T02:38:17;17.10;99.90
52495;DHT22;38405;53.212;5.660;2023-07-16T02:40:46;17.10;99.90
52495;DHT22;38405;53.212;5.660;2023-07-16T02:43:12;17.00;99.90
52495;DHT22;38405;53.212;5.660;2023-07-16T02:45:38;16.90;99.90
52495;DHT22;38405;53.212;5.660;2023-07-16T02:48:05;16.80;99.90
52495;DHT22;38405;53.212;5.660;2023-07-16T02:50:34;16.70;99.90
52495;DHT22;38405;53.212;5.660;2023-07-16T02:53:01;16.80;99.90
52495;DHT22;38405;53.212;5.660;2023-07-16T02:55:26;16.80;99.90
52495;DHT22;38405;53.212;5.660;2023-07-16T02:57:52;16.90;99.90
52495;DHT22;38405;53.212;5.660;2023-07-16T03:00:18;16.90;99.90
52495;DHT22;38405;53.212;5.660;2023-07-16T03:02:43;16.90;99.90
52495;DHT22;38405;53.212;5.660;2023-07-16T03:05:09;16.90;99.90
52495;DHT22;38405;53.212;5.660;2023-07-16T03:07:35;16.90;99.90
52495;DHT22;38405;53.212;5.660;2023-07-16T03:10:00;16.90;99.90
52495;DHT22;38405;53.212;5.660;2023-07-16T03:12:26;16.80;99.90
52495;DHT22;38405;53.212;5.660;2023-07-16T03:14:52;16.70;99.90
52495;DHT22;38405;53.212;5.660;2023-07-16T03:17:20;16.70;99.90
52495;DHT22;38405;53.212;5.660;2023-07-16T03:19:47;16.60;99.90
52495;DHT22;38405;53.212;5.660;2023-07-16T03:22:13;16.60;99.90
52495;DHT22;38405;53.212;5.660;2023-07-16T03:24:39;16.60;99.90
52495;DHT22;38405;53.212;5.660;2023-07-16T03:27:05;16.60;99.90
52495;DHT22;38405;53.212;5.660;2023-07-16T03:29:35;16.60;99.90
52495;DHT22;38405;53.212;5.660;2023-07-16T03:32:01;16.60;99.90
52495;DHT22;38405;53.212;5.660;2023-07-16T03:34:26;16.60;99.90
52495;DHT22;38405;53.212;5.660;2023-07-16T03:36:52;16.70;99.90
52495;DHT22;38405;53.212;5.660;2023-07-16T03:39:19;16.80;99.90
52495;DHT22;38405;53.212;5.660;2023-07-16T03:41:44;16.80;99.90
52495;DHT22;38405;53.212;5.660;2023-07-16T03:44:10;16.70;99.90
52495;DHT22;38405;53.212;5.660;2023-07-16T03:46:36;16.90;99.90
52495;DHT22;38405;53.212;5.660;2023-07-16T03:49:02;16.90;99.90
52495;DHT22;38405;53.212;5.660;2023-07-16T03:51:27;16.80;99.90
52495;DHT22;38405;53.212;5.660;2023-07-16T03:53:53;16.80;99.90
52495;DHT22;38405;53.212;5.660;2023-07-16T03:56:19;16.70;99.90
52495;DHT22;38405;53.212;5.660;2023-07-16T03:58:44;16.70;99.90
52495;DHT22;38405;53.212;5.660;2023-07-16T04:01:10;16.70;99.90
52495;DHT22;38405;53.212;5.660;2023-07-16T04:03:36;16.60;99.90
52495;DHT22;38405;53.212;5.660;2023-07-16T04:06:05;16.60;99.90
52495;DHT22;38405;53.212;5.660;2023-07-16T04:08:31;16.60;99.90
52495;DHT22;38405;53.212;5.660;2023-07-16T04:10:58;16.70;99.90
52495;DHT22;38405;53.212;5.660;2023-07-16T04:13:23;16.70;99.90
52495;DHT22;38405;53.212;5.660;2023-07-16T04:15:49;16.80;99.90
52495;DHT22;38405;53.212;5.660;2023-07-16T04:18:15;16.80;99.90
52495;DHT22;38405;53.212;5.660;2023-07-16T04:20:41;16.90;99.90
52495;DHT22;38405;53.212;5.660;2023-07-16T04:23:06;17.00;99.90
52495;DHT22;38405;53.212;5.660;2023-07-16T04:25:32;17.00;99.90
52495;DHT22;38405;53.212;5.660;2023-07-16T04:27:57;17.00;99.90
52495;DHT22;38405;53.212;5.660;2023-07-16T04:30:23;17.10;99.90
52495;DHT22;38405;53.212;5.660;2023-07-16T04:32:49;17.10;99.90
52495;DHT22;38405;53.212;5.660;2023-07-16T04:35:15;17.10;99.90
52495;DHT22;38405;53.212;5.660;2023-07-16T04:37:40;17.10;99.90
52495;DHT22;38405;53.212;5.660;2023-07-16T04:40:07;17.00;99.90
52495;DHT22;38405;53.212;5.660;2023-07-16T04:42:32;16.70;99.90
52495;DHT22;38405;53.212;5.660;2023-07-16T04:44:58;16.50;99.90
52495;DHT22;38405;53.212;5.660;2023-07-16T04:47:24;16.40;99.90
52495;DHT22;38405;53.212;5.660;2023-07-16T04:49:49;16.30;99.90
52495;DHT22;38405;53.212;5.660;2023-07-16T04:52:15;16.30;99.90
52495;DHT22;38405;53.212;5.660;2023-07-16T04:54:41;16.30;99.90
52495;DHT22;38405;53.212;5.660;2023-07-16T04:57:07;16.30;99.90
52495;DHT22;38405;53.212;5.660;2023-07-16T04:59:33;16.40;99.90
52495;DHT22;38405;53.212;5.660;2023-07-16T05:01:59;16.50;99.90
52495;DHT22;38405;53.212;5.660;2023-07-16T05:04:25;16.70;99.90
52495;DHT22;38405;53.212;5.660;2023-07-16T05:06:52;16.80;99.90
52495;DHT22;38405;53.212;5.660;2023-07-16T05:09:17;16.80;99.90
52495;DHT22;38405;53.212;5.660;2023-07-16T05:11:43;16.90;99.90
52495;DHT22;38405;53.212;5.660;2023-07-16T05:14:09;16.90;99.90
52495;DHT22;38405;53.212;5.660;2023-07-16T05:16:34;16.90;99.90
52495;DHT22;38405;53.212;5.660;2023-07-16T05:19:00;16.90;99.90
52495;DHT22;38405;53.212;5.660;2023-07-16T05:21:26;16.80;99.90
52495;DHT22;38405;53.212;5.660;2023-07-16T05:23:51;16.80;99.90
52495;DHT22;38405;53.212;5.660;2023-07-16T05:26:17;16.70;99.90
52495;DHT22;38405;53.212;5.660;2023-07-16T05:28:43;16.70;99.90
52495;DHT22;38405;53.212;5.660;2023-07-16T05:31:08;16.60;99.90
52495;DHT22;38405;53.212;5.660;2023-07-16T05:33:34;16.60;99.90
52495;DHT22;38405;53.212;5.660;2023-07-16T05:35:59;16.60;99.90
52495;DHT22;38405;53.212;5.660;2023-07-16T05:38:25;16.60;99.90
52495;DHT22;38405;53.212;5.660;2023-07-16T05:40:51;16.70;99.90
52495;DHT22;38405;53.212;5.660;2023-07-16T05:43:16;16.70;99.90
52495;DHT22;38405;53.212;5.660;2023-07-16T05:45:42;16.80;99.90
52495;DHT22;38405;53.212;5.660;2023-07-16T05:48:08;16.90;99.90
52495;DHT22;38405;53.212;5.660;2023-07-16T05:50:33;17.00;99.90
52495;DHT22;38405;53.212;5.660;2023-07-16T05:52:59;17.00;99.90
52495;DHT22;38405;53.212;5.660;2023-07-16T05:55:25;17.00;99.90
52495;DHT22;38405;53.212;5.660;2023-07-16T05:57:51;17.10;99.90
52495;DHT22;38405;53.212;5.660;2023-07-16T06:00:16;17.10;99.90
52495;DHT22;38405;53.212;5.660;2023-07-16T06:02:43;17.20;99.90
52495;DHT22;38405;53.212;5.660;2023-07-16T06:05:09;17.20;99.90
52495;DHT22;38405;53.212;5.660;2023-07-16T06:07:34;17.10;99.90
52495;DHT22;38405;53.212;5.660;2023-07-16T06:10:00;17.10;99.90
52495;DHT22;38405;53.212;5.660;2023-07-16T06:12:26;17.00;99.90
52495;DHT22;38405;53.212;5.660;2023-07-16T06:14:51;17.10;99.90
52495;DHT22;38405;53.212;5.660;2023-07-16T06:17:17;17.20;99.90
52495;DHT22;38405;53.212;5.660;2023-07-16T06:19:43;17.50;99.90
52495;DHT22;38405;53.212;5.660;2023-07-16T06:22:09;17.60;99.90
52495;DHT22;38405;53.212;5.660;2023-07-16T06:24:35;17.50;99.90
52495;DHT22;38405;53.212;5.660;2023-07-16T06:27:00;17.20;99.90
52495;DHT22;38405;53.212;5.660;2023-07-16T06:29:26;16.90;99.90
52495;DHT22;38405;53.212;5.660;2023-07-16T06:31:56;16.80;99.90
52495;DHT22;38405;53.212;5.660;2023-07-16T06:34:23;16.90;99.90
52495;DHT22;38405;53.212;5.660;2023-07-16T06:36:48;17.40;99.90
52495;DHT22;38405;53.212;5.660;2023-07-16T06:39:14;17.30;99.90
52495;DHT22;38405;53.212;5.660;2023-07-16T06:41:40;17.10;99.90
52495;DHT22;38405;53.212;5.660;2023-07-16T06:44:05;16.90;99.90
52495;DHT22;38405;53.212;5.660;2023-07-16T06:46:31;16.90;99.90
52495;DHT22;38405;53.212;5.660;2023-07-16T06:48:57;16.90;99.90
52495;DHT22;38405;53.212;5.660;2023-07-16T06:51:23;16.90;99.90
52495;DHT22;38405;53.212;5.660;2023-07-16T06:53:48;17.10;99.90
52495;DHT22;38405;53.212;5.660;2023-07-16T06:56:14;17.40;99.90
52495;DHT22;38405;53.212;5.660;2023-07-16T06:58:40;17.80;99.90
52495;DHT22;38405;53.212;5.660;2023-07-16T07:01:06;18.60;99.90
52495;DHT22;38405;53.212;5.660;2023-07-16T07:03:31;19.60;99.90
52495;DHT22;38405;53.212;5.660;2023-07-16T07:06:02;20.30;99.90
52495;DHT22;38405;53.212;5.660;2023-07-16T07:08:29;20.80;99.90
52495;DHT22;38405;53.212;5.660;2023-07-16T07:10:55;20.90;99.90
52495;DHT22;38405;53.212;5.660;2023-07-16T07:13:20;20.20;99.90
52495;DHT22;38405;53.212;5.660;2023-07-16T07:15:46;19.40;99.90
52495;DHT22;38405;53.212;5.660;2023-07-16T07:18:12;19.00;99.90
52495;DHT22;38405;53.212;5.660;2023-07-16T07:20:39;18.90;99.90
52495;DHT22;38405;53.212;5.660;2023-07-16T07:23:05;19.40;99.90
52495;DHT22;38405;53.212;5.660;2023-07-16T07:25:31;20.40;99.90
52495;DHT22;38405;53.212;5.660;2023-07-16T07:27:57;21.10;99.90
52495;DHT22;38405;53.212;5.660;2023-07-16T07:30:23;21.90;99.90
52495;DHT22;38405;53.212;5.660;2023-07-16T07:32:48;22.40;99.90
52495;DHT22;38405;53.212;5.660;2023-07-16T07:35:14;22.60;99.90
52495;DHT22;38405;53.212;5.660;2023-07-16T07:37:40;22.60;99.90
52495;DHT22;38405;53.212;5.660;2023-07-16T07:40:06;22.30;99.90
52495;DHT22;38405;53.212;5.660;2023-07-16T07:42:33;21.50;99.90
52495;DHT22;38405;53.212;5.660;2023-07-16T07:44:59;20.80;99.90
52495;DHT22;38405;53.212;5.660;2023-07-16T07:47:24;20.00;99.90
52495;DHT22;38405;53.212;5.660;2023-07-16T07:49:52;20.00;99.90
52495;DHT22;38405;53.212;5.660;2023-07-16T07:52:18;20.80;99.90
52495;DHT22;38405;53.212;5.660;2023-07-16T07:54:43;21.70;99.90
52495;DHT22;38405;53.212;5.660;2023-07-16T07:57:09;22.50;99.90
52495;DHT22;38405;53.212;5.660;2023-07-16T07:59:35;23.00;99.90
52495;DHT22;38405;53.212;5.660;2023-07-16T08:02:00;23.10;99.90
52495;DHT22;38405;53.212;5.660;2023-07-16T08:04:27;22.30;99.90
52495;DHT22;38405;53.212;5.660;2023-07-16T08:06:54;21.70;99.90
52495;DHT22;38405;53.212;5.660;2023-07-16T08:09:20;21.40;99.90
52495;DHT22;38405;53.212;5.660;2023-07-16T08:11:45;21.50;99.90
52495;DHT22;38405;53.212;5.660;2023-07-16T08:14:11;22.20;99.90
52495;DHT22;38405;53.212;5.660;2023-07-16T08:16:37;22.90;99.90
52495;DHT22;38405;53.212;5.660;2023-07-16T08:19:02;22.90;99.90
52495;DHT22;38405;53.212;5.660;2023-07-16T08:21:28;22.60;99.90
52495;DHT22;38405;53.212;5.660;2023-07-16T08:23:54;22.60;99.90
52495;DHT22;38405;53.212;5.660;2023-07-16T08:26:19;22.90;99.90
52495;DHT22;38405;53.212;5.660;2023-07-16T08:28:45;23.20;99.90
52495;DHT22;38405;53.212;5.660;2023-07-16T08:31:11;23.00;99.90
52495;DHT22;38405;53.212;5.660;2023-07-16T08:33:38;23.20;99.90
52495;DHT22;38405;53.212;5.660;2023-07-16T08:36:04;23.60;99.90
52495;DHT22;38405;53.212;5.660;2023-07-16T08:38:30;23.10;99.90
52495;DHT22;38405;53.212;5.660;2023-07-16T08:40:55;22.40;99.90
52495;DHT22;38405;53.212;5.660;2023-07-16T08:43:21;21.80;99.90
52495;DHT22;38405;53.212;5.660;2023-07-16T08:45:49;21.70;99.90
52495;DHT22;38405;53.212;5.660;2023-07-16T08:48:16;21.70;99.90
52495;DHT22;38405;53.212;5.660;2023-07-16T08:50:47;21.80;99.90
52495;DHT22;38405;53.212;5.660;2023-07-16T08:53:15;22.40;99.90
52495;DHT22;38405;53.212;5.660;2023-07-16T08:55:45;22.50;99.90
52495;DHT22;38405;53.212;5.660;2023-07-16T08:58:13;22.90;99.90
52495;DHT22;38405;53.212;5.660;2023-07-16T09:00:43;23.40;99.90
52495;DHT22;38405;53.212;5.660;2023-07-16T09:03:11;23.80;99.90
52495;DHT22;38405;53.212;5.660;2023-07-16T09:05:38;24.20;98.20
52495;DHT22;38405;53.212;5.660;2023-07-16T09:08:04;24.20;98.50
52495;DHT22;38405;53.212;5.660;2023-07-16T09:10:30;23.40;98.70
52495;DHT22;38405;53.212;5.660;2023-07-16T09:12:58;22.20;99.90
52495;DHT22;38405;53.212;5.660;2023-07-16T09:15:25;21.50;99.90
52495;DHT22;38405;53.212;5.660;2023-07-16T09:17:53;21.70;99.90
52495;DHT22;38405;53.212;5.660;2023-07-16T09:20:20;21.60;99.90
52495;DHT22;38405;53.212;5.660;2023-07-16T09:22:47;21.10;99.90
52495;DHT22;38405;53.212;5.660;2023-07-16T09:25:13;20.60;99.90
52495;DHT22;38405;53.212;5.660;2023-07-16T09:27:38;20.00;99.90
52495;DHT22;38405;53.212;5.660;2023-07-16T09:30:05;19.60;99.90
52495;DHT22;38405;53.212;5.660;2023-07-16T09:32:35;19.40;99.90
52495;DHT22;38405;53.212;5.660;2023-07-16T09:35:07;19.50;99.90
52495;DHT22;38405;53.212;5.660;2023-07-16T09:37:32;19.50;99.90
52495;DHT22;38405;53.212;5.660;2023-07-16T09:39:59;19.70;99.90
52495;DHT22;38405;53.212;5.660;2023-07-16T09:42:25;19.60;99.90
52495;DHT22;38405;53.212;5.660;2023-07-16T09:44:51;19.70;99.90
52495;DHT22;38405;53.212;5.660;2023-07-16T09:47:18;19.80;99.90
52495;DHT22;38405;53.212;5.660;2023-07-16T09:49:44;19.60;99.90
52495;DHT22;38405;53.212;5.660;2023-07-16T09:52:11;19.40;99.90
52495;DHT22;38405;53.212;5.660;2023-07-16T09:54:39;19.50;99.90
52495;DHT22;38405;53.212;5.660;2023-07-16T09:57:06;20.20;99.90
52495;DHT22;38405;53.212;5.660;2023-07-16T09:59:34;20.90;99.90
52495;DHT22;38405;53.212;5.660;2023-07-16T10:02:00;21.20;99.90
52495;DHT22;38405;53.212;5.660;2023-07-16T10:04:37;21.40;99.90
52495;DHT22;38405;53.212;5.660;2023-07-16T10:07:04;21.60;99.90
52495;DHT22;38405;53.212;5.660;2023-07-16T10:09:40;21.60;99.90
52495;DHT22;38405;53.212;5.660;2023-07-16T10:12:16;21.70;99.90
52495;DHT22;38405;53.212;5.660;2023-07-16T10:14:48;21.60;99.90
52495;DHT22;38405;53.212;5.660;2023-07-16T10:17:19;21.70;99.90
52495;DHT22;38405;53.212;5.660;2023-07-16T10:20:02;21.60;99.90
52495;DHT22;38405;53.212;5.660;2023-07-16T10:22:40;22.00;99.90
52495;DHT22;38405;53.212;5.660;2023-07-16T10:27:47;22.40;99.90
52495;DHT22;38405;53.212;5.660;2023-07-16T10:30:13;22.70;99.90
52495;DHT22;38405;53.212;5.660;2023-07-16T10:32:39;22.80;99.90
52495;DHT22;38405;53.212;5.660;2023-07-16T10:35:06;22.40;99.90
52495;DHT22;38405;53.212;5.660;2023-07-16T10:37:34;21.80;99.90
52495;DHT22;38405;53.212;5.660;2023-07-16T10:40:01;21.20;99.90
52495;DHT22;38405;53.212;5.660;2023-07-16T10:42:27;21.00;99.90
52495;DHT22;38405;53.212;5.660;2023-07-16T10:44:56;21.00;99.90
52495;DHT22;38405;53.212;5.660;2023-07-16T10:47:24;20.90;99.90
52495;DHT22;38405;53.212;5.660;2023-07-16T10:49:51;20.80;99.90
52495;DHT22;38405;53.212;5.660;2023-07-16T10:52:24;20.90;99.90
52495;DHT22;38405;53.212;5.660;2023-07-16T10:54:53;20.80;99.90
52495;DHT22;38405;53.212;5.660;2023-07-16T10:57:26;21.20;99.90
52495;DHT22;38405;53.212;5.660;2023-07-16T10:59:56;21.60;99.90
52495;DHT22;38405;53.212;5.660;2023-07-16T11:02:23;21.60;99.90
52495;DHT22;38405;53.212;5.660;2023-07-16T11:04:51;21.50;99.90
52495;DHT22;38405;53.212;5.660;2023-07-16T11:07:19;21.40;99.90
52495;DHT22;38405;53.212;5.660;2023-07-16T11:09:50;21.80;99.90
52495;DHT22;38405;53.212;5.660;2023-07-16T11:12:17;22.00;99.60
52495;DHT22;38405;53.212;5.660;2023-07-16T11:14:52;22.30;99.50
52495;DHT22;38405;53.212;5.660;2023-07-16T11:17:19;22.20;98.50
52495;DHT22;38405;53.212;5.660;2023-07-16T11:19:46;22.20;98.70
52495;DHT22;38405;53.212;5.660;2023-07-16T11:22:13;22.40;98.50
52495;DHT22;38405;53.212;5.660;2023-07-16T11:27:16;22.50;97.50
52495;DHT22;38405;53.212;5.660;2023-07-16T11:29:55;22.40;96.80
52495;DHT22;38405;53.212;5.660;2023-07-16T11:32:36;22.20;96.40
52495;DHT22;38405;53.212;5.660;2023-07-16T11:35:06;22.20;96.60
52495;DHT22;38405;53.212;5.660;2023-07-16T11:37:34;22.00;97.20
52495;DHT22;38405;53.212;5.660;2023-07-16T11:40:08;21.40;96.70
52495;DHT22;38405;53.212;5.660;2023-07-16T11:42:37;21.30;97.20
52495;DHT22;38405;53.212;5.660;2023-07-16T11:45:05;21.20;97.40
52495;DHT22;38405;53.212;5.660;2023-07-16T11:47:31;21.00;97.60
52495;DHT22;38405;53.212;5.660;2023-07-16T11:49:57;21.10;98.20
52495;DHT22;38405;53.212;5.660;2023-07-16T11:52:28;21.10;97.90
52495;DHT22;38405;53.212;5.660;2023-07-16T11:54:55;21.00;97.60
52495;DHT22;38405;53.212;5.660;2023-07-16T11:57:21;20.80;98.20
52495;DHT22;38405;53.212;5.660;2023-07-16T11:59:47;20.70;98.50
52495;DHT22;38405;53.212;5.660;2023-07-16T12:02:13;20.50;98.70
52495;DHT22;38405;53.212;5.660;2023-07-16T12:04:38;20.40;99.10
52495;DHT22;38405;53.212;5.660;2023-07-16T12:07:04;20.30;99.50
52495;DHT22;38405;53.212;5.660;2023-07-16T12:09:30;20.00;99.90
52495;DHT22;38405;53.212;5.660;2023-07-16T12:11:56;19.60;99.90
52495;DHT22;38405;53.212;5.660;2023-07-16T12:14:22;19.30;99.90
52495;DHT22;38405;53.212;5.660;2023-07-16T12:16:48;18.90;99.90
52495;DHT22;38405;53.212;5.660;2023-07-16T12:19:14;18.50;99.90
52495;DHT22;38405;53.212;5.660;2023-07-16T12:21:39;18.20;99.90
52495;DHT22;38405;53.212;5.660;2023-07-16T12:24:05;18.10;99.90
52495;DHT22;38405;53.212;5.660;2023-07-16T12:26:31;18.30;99.90
52495;DHT22;38405;53.212;5.660;2023-07-16T12:28:57;18.90;99.90
52495;DHT22;38405;53.212;5.660;2023-07-16T12:31:22;19.30;99.90
52495;DHT22;38405;53.212;5.660;2023-07-16T12:33:48;19.60;99.90
52495;DHT22;38405;53.212;5.660;2023-07-16T12:36:15;19.80;99.90
52495;DHT22;38405;53.212;5.660;2023-07-16T12:38:41;20.30;99.90
52495;DHT22;38405;53.212;5.660;2023-07-16T12:41:07;20.40;99.90
52495;DHT22;38405;53.212;5.660;2023-07-16T12:43:33;20.30;99.90
52495;DHT22;38405;53.212;5.660;2023-07-16T12:46:04;20.10;99.90
52495;DHT22;38405;53.212;5.660;2023-07-16T12:48:30;19.90;99.90
52495;DHT22;38405;53.212;5.660;2023-07-16T12:50:56;19.70;99.90
52495;DHT22;38405;53.212;5.660;2023-07-16T12:53:22;19.70;99.90
52495;DHT22;38405;53.212;5.660;2023-07-16T12:55:48;19.70;99.90
52495;DHT22;38405;53.212;5.660;2023-07-16T12:58:14;19.70;99.90
52495;DHT22;38405;53.212;5.660;2023-07-16T13:00:39;19.50;99.90
52495;DHT22;38405;53.212;5.660;2023-07-16T13:03:05;19.30;99.90
52495;DHT22;38405;53.212;5.660;2023-07-16T13:05:31;18.90;99.90
52495;DHT22;38405;53.212;5.660;2023-07-16T13:07:56;18.50;99.90
52495;DHT22;38405;53.212;5.660;2023-07-16T13:10:23;18.30;99.90
52495;DHT22;38405;53.212;5.660;2023-07-16T13:12:48;18.20;99.90
52495;DHT22;38405;53.212;5.660;2023-07-16T13:15:14;18.30;99.90
52495;DHT22;38405;53.212;5.660;2023-07-16T13:17:40;18.30;99.90
52495;DHT22;38405;53.212;5.660;2023-07-16T13:20:06;18.20;99.90
52495;DHT22;38405;53.212;5.660;2023-07-16T13:22:32;18.30;99.90
52495;DHT22;38405;53.212;5.660;2023-07-16T13:24:58;18.40;99.90
52495;DHT22;38405;53.212;5.660;2023-07-16T13:27:24;18.60;99.90
52495;DHT22;38405;53.212;5.660;2023-07-16T13:29:50;19.00;99.90
52495;DHT22;38405;53.212;5.660;2023-07-16T13:32:16;19.20;99.90
52495;DHT22;38405;53.212;5.660;2023-07-16T13:34:42;19.40;99.90
52495;DHT22;38405;53.212;5.660;2023-07-16T13:37:09;19.50;99.90
52495;DHT22;38405;53.212;5.660;2023-07-16T13:39:35;19.60;99.90
52495;DHT22;38405;53.212;5.660;2023-07-16T13:42:00;19.90;99.90
52495;DHT22;38405;53.212;5.660;2023-07-16T13:44:26;20.20;99.90
52495;DHT22;38405;53.212;5.660;2023-07-16T13:46:52;20.50;99.90
52495;DHT22;38405;53.212;5.660;2023-07-16T13:49:17;20.70;99.90
52495;DHT22;38405;53.212;5.660;2023-07-16T13:51:43;20.70;99.90
52495;DHT22;38405;53.212;5.660;2023-07-16T13:54:11;20.60;99.90
52495;DHT22;38405;53.212;5.660;2023-07-16T13:56:37;20.70;99.90
52495;DHT22;38405;53.212;5.660;2023-07-16T13:59:03;20.80;99.90
52495;DHT22;38405;53.212;5.660;2023-07-16T14:01:29;20.80;99.90
52495;DHT22;38405;53.212;5.660;2023-07-16T14:03:55;20.70;99.90
52495;DHT22;38405;53.212;5.660;2023-07-16T14:06:21;20.60;99.90
52495;DHT22;38405;53.212;5.660;2023-07-16T14:08:47;20.60;99.90
52495;DHT22;38405;53.212;5.660;2023-07-16T14:11:12;20.60;99.90
52495;DHT22;38405;53.212;5.660;2023-07-16T14:13:38;20.70;99.90
52495;DHT22;38405;53.212;5.660;2023-07-16T14:16:04;20.60;99.60
52495;DHT22;38405;53.212;5.660;2023-07-16T14:18:30;20.80;99.70
52495;DHT22;38405;53.212;5.660;2023-07-16T14:20:56;21.10;99.70
52495;DHT22;38405;53.212;5.660;2023-07-16T14:23:21;21.20;99.10
52495;DHT22;38405;53.212;5.660;2023-07-16T14:25:47;21.30;99.30
52495;DHT22;38405;53.212;5.660;2023-07-16T14:28:13;21.30;99.00
52495;DHT22;38405;53.212;5.660;2023-07-16T14:30:38;21.20;98.80
52495;DHT22;38405;53.212;5.660;2023-07-16T14:33:04;21.00;98.60
52495;DHT22;38405;53.212;5.660;2023-07-16T14:35:32;20.70;98.70
52495;DHT22;38405;53.212;5.660;2023-07-16T14:37:58;20.60;99.00
52495;DHT22;38405;53.212;5.660;2023-07-16T14:40:24;20.60;99.20
52495;DHT22;38405;53.212;5.660;2023-07-16T14:42:51;20.60;99.40
52495;DHT22;38405;53.212;5.660;2023-07-16T14:45:17;20.60;99.40
52495;DHT22;38405;53.212;5.660;2023-07-16T14:47:43;20.60;99.10
52495;DHT22;38405;53.212;5.660;2023-07-16T14:50:09;20.50;98.80
52495;DHT22;38405;53.212;5.660;2023-07-16T14:52:35;20.30;99.00
52495;DHT22;38405;53.212;5.660;2023-07-16T14:55:02;20.20;99.30
52495;DHT22;38405;53.212;5.660;2023-07-16T14:57:30;20.20;99.30
52495;DHT22;38405;53.212;5.660;2023-07-16T14:59:55;20.10;99.30
52495;DHT22;38405;53.212;5.660;2023-07-16T15:02:21;20.10;99.20
52495;DHT22;38405;53.212;5.660;2023-07-16T15:04:47;20.20;99.50
52495;DHT22;38405;53.212;5.660;2023-07-16T15:07:13;20.60;99.80
52495;DHT22;38405;53.212;5.660;2023-07-16T15:09:38;20.80;98.60
52495;DHT22;38405;53.212;5.660;2023-07-16T15:12:05;20.80;98.60
52495;DHT22;38405;53.212;5.660;2023-07-16T15:14:32;20.60;98.30
52495;DHT22;38405;53.212;5.660;2023-07-16T15:16:58;20.50;98.50
52495;DHT22;38405;53.212;5.660;2023-07-16T15:19:24;20.50;98.80
52495;DHT22;38405;53.212;5.660;2023-07-16T15:21:50;20.70;98.70
52495;DHT22;38405;53.212;5.660;2023-07-16T15:24:15;20.70;98.60
52495;DHT22;38405;53.212;5.660;2023-07-16T15:26:42;20.60;98.20
52495;DHT22;38405;53.212;5.660;2023-07-16T15:29:07;20.50;98.50
52495;DHT22;38405;53.212;5.660;2023-07-16T15:31:33;20.30;98.50
52495;DHT22;38405;53.212;5.660;2023-07-16T15:33:59;20.10;98.70
52495;DHT22;38405;53.212;5.660;2023-07-16T15:36:25;20.00;98.90
52495;DHT22;38405;53.212;5.660;2023-07-16T15:38:51;20.00;99.10
52495;DHT22;38405;53.212;5.660;2023-07-16T15:41:18;20.00;99.20